sensor_id;sensor_type;location;lat;lon;timestamp;pressure;altitude;pressure_sealevel;temperature
80581;BMP180;1474;51.460;7.150;2023-07-31T00:00:01;100076.00;;;15.50
80581;BMP180;1474;51.460;7.150;2023-07-31T00:02:33;100082.00;;;15.60
80581;BMP180;1474;51.460;7.150;2023-07-31T00:05:02;100073.00;;;15.50
80581;BMP180;1474;51.460;7.150;2023-07-31T00:07:32;100070.00;;;15.50
80581;BMP180;1474;51.460;7.150;2023-07-31T00:10:00;100064.00;;;15.60
80581;BMP180;1474;51.460;7.150;2023-07-31T00:12:28;100080.00;;;15.60
80581;BMP180;1474;51.460;7.150;2023-07-31T00:14:55;100066.00;;;15.50
80581;BMP180;1474;51.460;7.150;2023-07-31T00:17:26;100060.00;;;15.50
80581;BMP180;1474;51.460;7.150;2023-07-31T00:19:53;100059.00;;;15.50
80581;BMP180;1474;51.460;7.150;2023-07-31T00:22:23;100055.00;;;15.50
80581;BMP180;1474;51.460;7.150;2023-07-31T00:24:50;100054.00;;;15.50
80581;BMP180;1474;51.460;7.150;2023-07-31T00:27:17;100059.00;;;15.50
80581;BMP180;1474;51.460;7.150;2023-07-31T00:29:44;100065.00;;;15.50
80581;BMP180;1474;51.460;7.150;2023-07-31T00:32:10;100068.00;;;15.60
80581;BMP180;1474;51.460;7.150;2023-07-31T00:34:37;100063.00;;;15.50
80581;BMP180;1474;51.460;7.150;2023-07-31T00:37:03;100062.00;;;15.50
80581;BMP180;1474;51.460;7.150;2023-07-31T00:39:30;100057.00;;;15.50
80581;BMP180;1474;51.460;7.150;2023-07-31T00:41:56;100055.00;;;15.50
80581;BMP180;1474;51.460;7.150;2023-07-31T00:44:23;100057.00;;;15.50
80581;BMP180;1474;51.460;7.150;2023-07-31T00:46:52;100059.00;;;15.50
80581;BMP180;1474;51.460;7.150;2023-07-31T00:49:18;100056.00;;;15.50
80581;BMP180;1474;51.460;7.150;2023-07-31T00:51:45;100062.00;;;15.50
80581;BMP180;1474;51.460;7.150;2023-07-31T00:54:12;100051.00;;;15.60
80581;BMP180;1474;51.460;7.150;2023-07-31T00:56:41;100051.00;;;15.50
80581;BMP180;1474;51.460;7.150;2023-07-31T00:59:10;100057.00;;;15.50
80581;BMP180;1474;51.460;7.150;2023-07-31T01:01:38;100051.00;;;15.60
80581;BMP180;1474;51.460;7.150;2023-07-31T01:04:07;100046.00;;;15.60
80581;BMP180;1474;51.460;7.150;2023-07-31T01:07:11;100046.00;;;15.50
80581;BMP180;1474;51.460;7.150;2023-07-31T01:10:26;100051.00;;;15.60
80581;BMP180;1474;51.460;7.150;2023-07-31T01:12:57;100053.00;;;15.60
80581;BMP180;1474;51.460;7.150;2023-07-31T01:15:26;100052.00;;;15.60
80581;BMP180;1474;51.460;7.150;2023-07-31T01:17:54;100050.00;;;15.60
80581;BMP180;1474;51.460;7.150;2023-07-31T01:20:29;100042.00;;;15.50
80581;BMP180;1474;51.460;7.150;2023-07-31T01:26:30;100041.00;;;15.50
80581;BMP180;1474;51.460;7.150;2023-07-31T01:29:11;100047.00;;;15.60
80581;BMP180;1474;51.460;7.150;2023-07-31T01:31:41;100053.00;;;15.50
80581;BMP180;1474;51.460;7.150;2023-07-31T01:34:09;100055.00;;;15.50
80581;BMP180;1474;51.460;7.150;2023-07-31T01:36:37;100052.00;;;15.50
80581;BMP180;1474;51.460;7.150;2023-07-31T01:39:04;100051.00;;;15.50
80581;BMP180;1474;51.460;7.150;2023-07-31T01:41:31;100048.00;;;15.50
80581;BMP180;1474;51.460;7.150;2023-07-31T01:43:57;100050.00;;;15.50
80581;BMP180;1474;51.460;7.150;2023-07-31T01:46:23;100047.00;;;15.50
80581;BMP180;1474;51.460;7.150;2023-07-31T01:48:49;100034.00;;;15.50
80581;BMP180;1474;51.460;7.150;2023-07-31T01:51:15;100040.00;;;15.50
80581;BMP180;1474;51.460;7.150;2023-07-31T01:53:40;100031.00;;;15.50
80581;BMP180;1474;51.460;7.150;2023-07-31T01:56:09;100034.00;;;15.50
80581;BMP180;1474;51.460;7.150;2023-07-31T01:58:35;100037.00;;;15.40
80581;BMP180;1474;51.460;7.150;2023-07-31T02:01:01;100031.00;;;15.40
80581;BMP180;1474;51.460;7.150;2023-07-31T02:03:30;100040.00;;;15.40
80581;BMP180;1474;51.460;7.150;2023-07-31T02:05:55;100031.00;;;15.40
80581;BMP180;1474;51.460;7.150;2023-07-31T02:08:22;100035.00;;;15.40
80581;BMP180;1474;51.460;7.150;2023-07-31T02:10:48;100025.00;;;15.40
80581;BMP180;1474;51.460;7.150;2023-07-31T02:13:14;100033.00;;;15.40
80581;BMP180;1474;51.460;7.150;2023-07-31T02:15:40;100029.00;;;15.50
80581;BMP180;1474;51.460;7.150;2023-07-31T02:18:06;100026.00;;;15.40
80581;BMP180;1474;51.460;7.150;2023-07-31T02:20:35;100018.00;;;15.40
80581;BMP180;1474;51.460;7.150;2023-07-31T02:23:01;100016.00;;;15.40
80581;BMP180;1474;51.460;7.150;2023-07-31T02:25:27;100022.00;;;15.40
80581;BMP180;1474;51.460;7.150;2023-07-31T02:27:53;100018.00;;;15.40
80581;BMP180;1474;51.460;7.150;2023-07-31T02:30:19;100021.00;;;15.40
80581;BMP180;1474;51.460;7.150;2023-07-31T02:32:44;100014.00;;;15.40
80581;BMP180;1474;51.460;7.150;2023-07-31T02:35:14;100019.00;;;15.40
80581;BMP180;1474;51.460;7.150;2023-07-31T02:37:42;100017.00;;;15.40
80581;BMP180;1474;51.460;7.150;2023-07-31T02:40:08;100014.00;;;15.40
80581;BMP180;1474;51.460;7.150;2023-07-31T02:42:34;100013.00;;;15.40
80581;BMP180;1474;51.460;7.150;2023-07-31T02:45:00;100017.00;;;15.40
80581;BMP180;1474;51.460;7.150;2023-07-31T02:47:26;100009.00;;;15.40
80581;BMP180;1474;51.460;7.150;2023-07-31T02:49:52;100010.00;;;15.40
80581;BMP180;1474;51.460;7.150;2023-07-31T02:52:18;100010.00;;;15.40
80581;BMP180;1474;51.460;7.150;2023-07-31T02:54:46;100009.00;;;15.30
80581;BMP180;1474;51.460;7.150;2023-07-31T02:57:12;100008.00;;;15.30
80581;BMP180;1474;51.460;7.150;2023-07-31T02:59:41;100010.00;;;15.30
80581;BMP180;1474;51.460;7.150;2023-07-31T03:02:07;100002.00;;;15.40
80581;BMP180;1474;51.460;7.150;2023-07-31T03:04:33;99998.00;;;15.40
80581;BMP180;1474;51.460;7.150;2023-07-31T03:06:59;99997.00;;;15.40
80581;BMP180;1474;51.460;7.150;2023-07-31T03:09:25;99990.00;;;15.40
80581;BMP180;1474;51.460;7.150;2023-07-31T03:11:54;99997.00;;;15.30
80581;BMP180;1474;51.460;7.150;2023-07-31T03:14:20;99984.00;;;15.40
80581;BMP180;1474;51.460;7.150;2023-07-31T03:16:47;99994.00;;;15.50
80581;BMP180;1474;51.460;7.150;2023-07-31T03:19:13;99991.00;;;15.40
80581;BMP180;1474;51.460;7.150;2023-07-31T03:21:39;99978.00;;;15.40
80581;BMP180;1474;51.460;7.150;2023-07-31T03:24:07;99994.00;;;15.30
80581;BMP180;1474;51.460;7.150;2023-07-31T03:26:33;99988.00;;;15.40
80581;BMP180;1474;51.460;7.150;2023-07-31T03:29:02;99983.00;;;15.40
80581;BMP180;1474;51.460;7.150;2023-07-31T03:31:28;99985.00;;;15.50
80581;BMP180;1474;51.460;7.150;2023-07-31T03:33:54;99995.00;;;15.50
80581;BMP180;1474;51.460;7.150;2023-07-31T03:36:20;99991.00;;;15.50
80581;BMP180;1474;51.460;7.150;2023-07-31T03:38:46;99988.00;;;15.50
80581;BMP180;1474;51.460;7.150;2023-07-31T03:41:12;99990.00;;;15.50
80581;BMP180;1474;51.460;7.150;2023-07-31T03:43:38;99982.00;;;15.50
80581;BMP180;1474;51.460;7.150;2023-07-31T03:46:09;99990.00;;;15.50
80581;BMP180;1474;51.460;7.150;2023-07-31T03:48:35;99980.00;;;15.60
80581;BMP180;1474;51.460;7.150;2023-07-31T03:51:01;99997.00;;;15.60
80581;BMP180;1474;51.460;7.150;2023-07-31T03:53:27;99984.00;;;15.60
80581;BMP180;1474;51.460;7.150;2023-07-31T03:55:52;99984.00;;;15.70
80581;BMP180;1474;51.460;7.150;2023-07-31T03:58:18;99975.00;;;15.70
80581;BMP180;1474;51.460;7.150;2023-07-31T04:00:48;99990.00;;;15.70
80581;BMP180;1474;51.460;7.150;2023-07-31T04:03:14;99981.00;;;15.70
80581;BMP180;1474;51.460;7.150;2023-07-31T04:05:40;99988.00;;;15.70
80581;BMP180;1474;51.460;7.150;2023-07-31T04:08:09;99989.00;;;15.70
80581;BMP180;1474;51.460;7.150;2023-07-31T04:10:34;99978.00;;;15.70
80581;BMP180;1474;51.460;7.150;2023-07-31T04:13:03;99974.00;;;15.70
80581;BMP180;1474;51.460;7.150;2023-07-31T04:15:29;99969.00;;;15.70
80581;BMP180;1474;51.460;7.150;2023-07-31T04:17:55;99977.00;;;15.70
80581;BMP180;1474;51.460;7.150;2023-07-31T04:20:24;99976.00;;;15.80
80581;BMP180;1474;51.460;7.150;2023-07-31T04:22:56;99961.00;;;15.90
80581;BMP180;1474;51.460;7.150;2023-07-31T04:25:28;99972.00;;;15.90
80581;BMP180;1474;51.460;7.150;2023-07-31T04:27:53;99965.00;;;15.90
80581;BMP180;1474;51.460;7.150;2023-07-31T04:30:19;99959.00;;;16.00
80581;BMP180;1474;51.460;7.150;2023-07-31T04:32:48;99957.00;;;15.90
80581;BMP180;1474;51.460;7.150;2023-07-31T04:35:14;99954.00;;;15.90
80581;BMP180;1474;51.460;7.150;2023-07-31T04:37:40;99957.00;;;16.00
80581;BMP180;1474;51.460;7.150;2023-07-31T04:40:07;99946.00;;;16.00
80581;BMP180;1474;51.460;7.150;2023-07-31T04:42:34;99955.00;;;15.90
80581;BMP180;1474;51.460;7.150;2023-07-31T04:45:00;99952.00;;;15.90
80581;BMP180;1474;51.460;7.150;2023-07-31T04:47:26;99943.00;;;15.90
80581;BMP180;1474;51.460;7.150;2023-07-31T04:49:52;99945.00;;;15.90
80581;BMP180;1474;51.460;7.150;2023-07-31T04:52:18;99945.00;;;15.90
80581;BMP180;1474;51.460;7.150;2023-07-31T04:54:44;99948.00;;;15.90
80581;BMP180;1474;51.460;7.150;2023-07-31T04:57:09;99948.00;;;16.00
80581;BMP180;1474;51.460;7.150;2023-07-31T04:59:35;99952.00;;;16.00
80581;BMP180;1474;51.460;7.150;2023-07-31T05:02:02;99933.00;;;16.00
80581;BMP180;1474;51.460;7.150;2023-07-31T05:04:28;99942.00;;;16.00
80581;BMP180;1474;51.460;7.150;2023-07-31T05:06:54;99944.00;;;16.00
80581;BMP180;1474;51.460;7.150;2023-07-31T05:09:20;99940.00;;;16.00
80581;BMP180;1474;51.460;7.150;2023-07-31T05:11:45;99929.00;;;16.10
80581;BMP180;1474;51.460;7.150;2023-07-31T05:14:11;99926.00;;;16.10
80581;BMP180;1474;51.460;7.150;2023-07-31T05:16:37;99920.00;;;16.10
80581;BMP180;1474;51.460;7.150;2023-07-31T05:19:03;99921.00;;;16.10
80581;BMP180;1474;51.460;7.150;2023-07-31T05:21:29;99916.00;;;16.10
80581;BMP180;1474;51.460;7.150;2023-07-31T05:23:55;99912.00;;;16.20
80581;BMP180;1474;51.460;7.150;2023-07-31T05:26:20;99915.00;;;16.10
80581;BMP180;1474;51.460;7.150;2023-07-31T05:28:46;99917.00;;;16.10
80581;BMP180;1474;51.460;7.150;2023-07-31T05:31:12;99914.00;;;16.10
80581;BMP180;1474;51.460;7.150;2023-07-31T05:33:38;99909.00;;;16.20
80581;BMP180;1474;51.460;7.150;2023-07-31T05:36:04;99908.00;;;16.20
80581;BMP180;1474;51.460;7.150;2023-07-31T05:38:30;99904.00;;;16.10
80581;BMP180;1474;51.460;7.150;2023-07-31T05:40:56;99902.00;;;16.20
80581;BMP180;1474;51.460;7.150;2023-07-31T05:43:22;99904.00;;;16.20
80581;BMP180;1474;51.460;7.150;2023-07-31T05:45:47;99904.00;;;16.20
80581;BMP180;1474;51.460;7.150;2023-07-31T05:48:13;99905.00;;;16.10
80581;BMP180;1474;51.460;7.150;2023-07-31T05:50:39;99901.00;;;16.10
80581;BMP180;1474;51.460;7.150;2023-07-31T05:53:06;99896.00;;;16.00
80581;BMP180;1474;51.460;7.150;2023-07-31T05:55:33;99889.00;;;16.00
80581;BMP180;1474;51.460;7.150;2023-07-31T05:57:59;99888.00;;;16.00
80581;BMP180;1474;51.460;7.150;2023-07-31T06:00:25;99876.00;;;16.00
80581;BMP180;1474;51.460;7.150;2023-07-31T06:02:51;99888.00;;;16.00
80581;BMP180;1474;51.460;7.150;2023-07-31T06:05:17;99885.00;;;16.00
80581;BMP180;1474;51.460;7.150;2023-07-31T06:07:43;99884.00;;;16.00
80581;BMP180;1474;51.460;7.150;2023-07-31T06:10:09;99866.00;;;16.00
80581;BMP180;1474;51.460;7.150;2023-07-31T06:12:35;99869.00;;;16.10
80581;BMP180;1474;51.460;7.150;2023-07-31T06:15:05;99863.00;;;16.20
80581;BMP180;1474;51.460;7.150;2023-07-31T06:17:31;99857.00;;;16.30
80581;BMP180;1474;51.460;7.150;2023-07-31T06:19:57;99864.00;;;16.30
80581;BMP180;1474;51.460;7.150;2023-07-31T06:22:23;99867.00;;;16.30
80581;BMP180;1474;51.460;7.150;2023-07-31T06:24:49;99864.00;;;16.30
80581;BMP180;1474;51.460;7.150;2023-07-31T06:27:14;99865.00;;;16.30
80581;BMP180;1474;51.460;7.150;2023-07-31T06:29:40;99864.00;;;16.30
80581;BMP180;1474;51.460;7.150;2023-07-31T06:32:07;99864.00;;;16.30
80581;BMP180;1474;51.460;7.150;2023-07-31T06:34:33;99859.00;;;16.30
80581;BMP180;1474;51.460;7.150;2023-07-31T06:36:59;99859.00;;;16.30
80581;BMP180;1474;51.460;7.150;2023-07-31T06:39:25;99867.00;;;16.30
80581;BMP180;1474;51.460;7.150;2023-07-31T06:41:51;99863.00;;;16.30
80581;BMP180;1474;51.460;7.150;2023-07-31T06:44:16;99860.00;;;16.30
80581;BMP180;1474;51.460;7.150;2023-07-31T06:46:43;99863.00;;;16.20
80581;BMP180;1474;51.460;7.150;2023-07-31T06:49:08;99862.00;;;16.20
80581;BMP180;1474;51.460;7.150;2023-07-31T06:51:34;99863.00;;;16.20
80581;BMP180;1474;51.460;7.150;2023-07-31T06:54:01;99862.00;;;16.20
80581;BMP180;1474;51.460;7.150;2023-07-31T06:56:28;99866.00;;;16.20
80581;BMP180;1474;51.460;7.150;2023-07-31T06:58:55;99856.00;;;16.30
80581;BMP180;1474;51.460;7.150;2023-07-31T07:01:21;99861.00;;;16.30
80581;BMP180;1474;51.460;7.150;2023-07-31T07:03:47;99856.00;;;16.30
80581;BMP180;1474;51.460;7.150;2023-07-31T07:06:17;99861.00;;;16.30
80581;BMP180;1474;51.460;7.150;2023-07-31T07:08:43;99859.00;;;16.30
80581;BMP180;1474;51.460;7.150;2023-07-31T07:11:09;99859.00;;;16.40
80581;BMP180;1474;51.460;7.150;2023-07-31T07:13:35;99861.00;;;16.30
80581;BMP180;1474;51.460;7.150;2023-07-31T07:16:01;99863.00;;;16.30
80581;BMP180;1474;51.460;7.150;2023-07-31T07:18:27;99869.00;;;16.20
80581;BMP180;1474;51.460;7.150;2023-07-31T07:20:54;99863.00;;;16.20
80581;BMP180;1474;51.460;7.150;2023-07-31T07:23:24;99856.00;;;16.20
80581;BMP180;1474;51.460;7.150;2023-07-31T07:25:55;99852.00;;;16.20
80581;BMP180;1474;51.460;7.150;2023-07-31T07:28:20;99850.00;;;16.20
80581;BMP180;1474;51.460;7.150;2023-07-31T07:30:52;99847.00;;;16.20
80581;BMP180;1474;51.460;7.150;2023-07-31T07:33:20;99843.00;;;16.20
80581;BMP180;1474;51.460;7.150;2023-07-31T07:35:46;99852.00;;;16.30
80581;BMP180;1474;51.460;7.150;2023-07-31T07:38:14;99844.00;;;16.20
80581;BMP180;1474;51.460;7.150;2023-07-31T07:40:47;99842.00;;;16.20
80581;BMP180;1474;51.460;7.150;2023-07-31T07:43:41;99843.00;;;16.30
80581;BMP180;1474;51.460;7.150;2023-07-31T07:46:17;99839.00;;;16.30
80581;BMP180;1474;51.460;7.150;2023-07-31T07:48:46;99830.00;;;16.40
80581;BMP180;1474;51.460;7.150;2023-07-31T07:51:17;99843.00;;;16.40
80581;BMP180;1474;51.460;7.150;2023-07-31T07:53:45;99835.00;;;16.40
80581;BMP180;1474;51.460;7.150;2023-07-31T07:56:11;99833.00;;;16.40
80581;BMP180;1474;51.460;7.150;2023-07-31T07:58:54;99832.00;;;16.40
80581;BMP180;1474;51.460;7.150;2023-07-31T08:01:20;99836.00;;;16.30
80581;BMP180;1474;51.460;7.150;2023-07-31T08:03:50;99830.00;;;16.30
80581;BMP180;1474;51.460;7.150;2023-07-31T08:06:19;99839.00;;;16.30
80581;BMP180;1474;51.460;7.150;2023-07-31T08:08:50;99835.00;;;16.20
80581;BMP180;1474;51.460;7.150;2023-07-31T08:11:16;99826.00;;;16.20
80581;BMP180;1474;51.460;7.150;2023-07-31T08:13:42;99831.00;;;16.20
80581;BMP180;1474;51.460;7.150;2023-07-31T08:16:08;99837.00;;;16.10
80581;BMP180;1474;51.460;7.150;2023-07-31T08:18:42;99826.00;;;16.10
80581;BMP180;1474;51.460;7.150;2023-07-31T08:21:10;99821.00;;;16.20
80581;BMP180;1474;51.460;7.150;2023-07-31T08:23:36;99804.00;;;16.30
80581;BMP180;1474;51.460;7.150;2023-07-31T08:26:02;99813.00;;;16.30
80581;BMP180;1474;51.460;7.150;2023-07-31T08:28:28;99812.00;;;16.40
80581;BMP180;1474;51.460;7.150;2023-07-31T08:30:54;99811.00;;;16.50
80581;BMP180;1474;51.460;7.150;2023-07-31T08:33:20;99801.00;;;16.50
80581;BMP180;1474;51.460;7.150;2023-07-31T08:35:46;99817.00;;;16.50
80581;BMP180;1474;51.460;7.150;2023-07-31T08:38:12;99818.00;;;16.30
80581;BMP180;1474;51.460;7.150;2023-07-31T08:40:38;99804.00;;;16.40
80581;BMP180;1474;51.460;7.150;2023-07-31T08:43:04;99805.00;;;16.40
80581;BMP180;1474;51.460;7.150;2023-07-31T08:45:33;99801.00;;;16.50
80581;BMP180;1474;51.460;7.150;2023-07-31T08:47:59;99798.00;;;16.40
80581;BMP180;1474;51.460;7.150;2023-07-31T08:50:28;99800.00;;;16.40
80581;BMP180;1474;51.460;7.150;2023-07-31T08:52:54;99801.00;;;16.40
80581;BMP180;1474;51.460;7.150;2023-07-31T08:55:24;99795.00;;;16.30
80581;BMP180;1474;51.460;7.150;2023-07-31T08:57:52;99805.00;;;16.40
80581;BMP180;1474;51.460;7.150;2023-07-31T09:00:20;99800.00;;;16.40
80581;BMP180;1474;51.460;7.150;2023-07-31T09:03:03;99800.00;;;16.30
80581;BMP180;1474;51.460;7.150;2023-07-31T09:05:32;99801.00;;;16.30
80581;BMP180;1474;51.460;7.150;2023-07-31T09:08:02;99799.00;;;16.40
80581;BMP180;1474;51.460;7.150;2023-07-31T09:10:30;99802.00;;;16.40
80581;BMP180;1474;51.460;7.150;2023-07-31T09:13:00;99810.00;;;16.50
80581;BMP180;1474;51.460;7.150;2023-07-31T09:15:28;99826.00;;;16.50
80581;BMP180;1474;51.460;7.150;2023-07-31T09:18:02;99821.00;;;16.30
80581;BMP180;1474;51.460;7.150;2023-07-31T09:20:29;99820.00;;;16.40
80581;BMP180;1474;51.460;7.150;2023-07-31T09:23:10;99808.00;;;16.30
80581;BMP180;1474;51.460;7.150;2023-07-31T09:25:38;99802.00;;;16.30
80581;BMP180;1474;51.460;7.150;2023-07-31T09:28:07;99801.00;;;16.30
80581;BMP180;1474;51.460;7.150;2023-07-31T09:30:52;99804.00;;;16.40
80581;BMP180;1474;51.460;7.150;2023-07-31T09:33:19;99797.00;;;16.50
80581;BMP180;1474;51.460;7.150;2023-07-31T09:35:46;99790.00;;;16.70
80581;BMP180;1474;51.460;7.150;2023-07-31T09:38:15;99798.00;;;16.60
80581;BMP180;1474;51.460;7.150;2023-07-31T09:40:44;99787.00;;;16.50
80581;BMP180;1474;51.460;7.150;2023-07-31T09:43:21;99779.00;;;16.70
80581;BMP180;1474;51.460;7.150;2023-07-31T09:45:48;99778.00;;;16.80
80581;BMP180;1474;51.460;7.150;2023-07-31T09:48:20;99778.00;;;16.90
80581;BMP180;1474;51.460;7.150;2023-07-31T09:50:49;99776.00;;;17.00
80581;BMP180;1474;51.460;7.150;2023-07-31T09:53:16;99780.00;;;17.10
80581;BMP180;1474;51.460;7.150;2023-07-31T09:55:43;99781.00;;;16.90
80581;BMP180;1474;51.460;7.150;2023-07-31T09:58:11;99787.00;;;16.70
80581;BMP180;1474;51.460;7.150;2023-07-31T10:00:38;99767.00;;;16.80
80581;BMP180;1474;51.460;7.150;2023-07-31T10:03:10;99773.00;;;16.90
80581;BMP180;1474;51.460;7.150;2023-07-31T10:05:55;99771.00;;;16.80
80581;BMP180;1474;51.460;7.150;2023-07-31T10:08:28;99781.00;;;16.80
80581;BMP180;1474;51.460;7.150;2023-07-31T10:11:01;99775.00;;;16.70
80581;BMP180;1474;51.460;7.150;2023-07-31T10:13:32;99769.00;;;16.70
80581;BMP180;1474;51.460;7.150;2023-07-31T10:15:59;99762.00;;;16.70
80581;BMP180;1474;51.460;7.150;2023-07-31T10:18:28;99777.00;;;16.70
80581;BMP180;1474;51.460;7.150;2023-07-31T10:20:55;99765.00;;;16.70
80581;BMP180;1474;51.460;7.150;2023-07-31T10:23:36;99765.00;;;16.80
80581;BMP180;1474;51.460;7.150;2023-07-31T16:24:55;99543.00;;;17.60
80581;BMP180;1474;51.460;7.150;2023-07-31T16:27:23;99545.00;;;17.50
80581;BMP180;1474;51.460;7.150;2023-07-31T16:29:51;99534.00;;;17.40
80581;BMP180;1474;51.460;7.150;2023-07-31T16:32:17;99531.00;;;17.30
80581;BMP180;1474;51.460;7.150;2023-07-31T16:34:49;99525.00;;;17.30
80581;BMP180;1474;51.460;7.150;2023-07-31T16:37:19;99521.00;;;17.20
80581;BMP180;1474;51.460;7.150;2023-07-31T16:39:54;99521.00;;;17.30
80581;BMP180;1474;51.460;7.150;2023-07-31T16:42:21;99520.00;;;17.30
80581;BMP180;1474;51.460;7.150;2023-07-31T16:44:58;99511.00;;;17.20
80581;BMP180;1474;51.460;7.150;2023-07-31T16:47:25;99514.00;;;17.20
80581;BMP180;1474;51.460;7.150;2023-07-31T16:50:15;99503.00;;;17.30
80581;BMP180;1474;51.460;7.150;2023-07-31T16:52:51;99506.00;;;17.10
80581;BMP180;1474;51.460;7.150;2023-07-31T16:55:20;99492.00;;;17.20
80581;BMP180;1474;51.460;7.150;2023-07-31T16:57:53;99492.00;;;17.20
80581;BMP180;1474;51.460;7.150;2023-07-31T17:00:29;99488.00;;;17.20
80581;BMP180;1474;51.460;7.150;2023-07-31T17:03:08;99491.00;;;17.20
80581;BMP180;1474;51.460;7.150;2023-07-31T17:05:46;99489.00;;;17.20
80581;BMP180;1474;51.460;7.150;2023-07-31T17:08:14;99476.00;;;17.20
80581;BMP180;1474;51.460;7.150;2023-07-31T17:10:45;99478.00;;;17.20
80581;BMP180;1474;51.460;7.150;2023-07-31T17:13:20;99480.00;;;17.10
80581;BMP180;1474;51.460;7.150;2023-07-31T17:15:46;99472.00;;;17.10
80581;BMP180;1474;51.460;7.150;2023-07-31T17:18:19;99462.00;;;17.10
80581;BMP180;1474;51.460;7.150;2023-07-31T17:21:02;99465.00;;;17.20
80581;BMP180;1474;51.460;7.150;2023-07-31T17:23:46;99466.00;;;17.10
80581;BMP180;1474;51.460;7.150;2023-07-31T17:26:14;99452.00;;;17.00
80581;BMP180;1474;51.460;7.150;2023-07-31T17:28:42;99451.00;;;16.90
80581;BMP180;1474;51.460;7.150;2023-07-31T17:31:12;99456.00;;;16.90
80581;BMP180;1474;51.460;7.150;2023-07-31T17:33:40;99451.00;;;16.90
80581;BMP180;1474;51.460;7.150;2023-07-31T17:36:12;99441.00;;;16.90
80581;BMP180;1474;51.460;7.150;2023-07-31T17:38:39;99449.00;;;16.90
80581;BMP180;1474;51.460;7.150;2023-07-31T17:41:06;99442.00;;;16.90
80581;BMP180;1474;51.460;7.150;2023-07-31T17:43:33;99437.00;;;16.90
80581;BMP180;1474;51.460;7.150;2023-07-31T17:45:59;99437.00;;;16.90
80581;BMP180;1474;51.460;7.150;2023-07-31T17:48:32;99425.00;;;16.80
80581;BMP180;1474;51.460;7.150;2023-07-31T17:51:08;99430.00;;;16.80
80581;BMP180;1474;51.460;7.150;2023-07-31T17:53:35;99424.00;;;16.70
80581;BMP180;1474;51.460;7.150;2023-07-31T17:56:01;99416.00;;;16.70
80581;BMP180;1474;51.460;7.150;2023-07-31T17:58:28;99421.00;;;16.70
80581;BMP180;1474;51.460;7.150;2023-07-31T18:00:55;99414.00;;;16.70
80581;BMP180;1474;51.460;7.150;2023-07-31T18:03:21;99414.00;;;16.70
80581;BMP180;1474;51.460;7.150;2023-07-31T18:05:50;99420.00;;;16.60
80581;BMP180;1474;51.460;7.150;2023-07-31T18:08:25;99426.00;;;16.60
80581;BMP180;1474;51.460;7.150;2023-07-31T18:10:56;99415.00;;;16.60
80581;BMP180;1474;51.460;7.150;2023-07-31T18:13:23;99414.00;;;16.50
80581;BMP180;1474;51.460;7.150;2023-07-31T18:15:49;99409.00;;;16.50
80581;BMP180;1474;51.460;7.150;2023-07-31T18:18:18;99400.00;;;16.40
80581;BMP180;1474;51.460;7.150;2023-07-31T18:20:51;99404.00;;;16.50
80581;BMP180;1474;51.460;7.150;2023-07-31T18:23:16;99398.00;;;16.50
80581;BMP180;1474;51.460;7.150;2023-07-31T18:25:47;99395.00;;;16.40
80581;BMP180;1474;51.460;7.150;2023-07-31T18:28:13;99386.00;;;16.40
80581;BMP180;1474;51.460;7.150;2023-07-31T18:30:40;99384.00;;;16.40
80581;BMP180;1474;51.460;7.150;2023-07-31T18:33:06;99376.00;;;16.40
80581;BMP180;1474;51.460;7.150;2023-07-31T18:35:38;99374.00;;;16.40
80581;BMP180;1474;51.460;7.150;2023-07-31T18:38:04;99374.00;;;16.40
80581;BMP180;1474;51.460;7.150;2023-07-31T18:40:35;99372.00;;;16.50
80581;BMP180;1474;51.460;7.150;2023-07-31T18:43:03;99369.00;;;16.40
80581;BMP180;1474;51.460;7.150;2023-07-31T18:45:32;99358.00;;;16.50
80581;BMP180;1474;51.460;7.150;2023-07-31T18:48:00;99370.00;;;16.50
80581;BMP180;1474;51.460;7.150;2023-07-31T18:50:29;99360.00;;;16.50
80581;BMP180;1474;51.460;7.150;2023-07-31T18:52:55;99365.00;;;16.40
80581;BMP180;1474;51.460;7.150;2023-07-31T18:55:21;99348.00;;;16.40
80581;BMP180;1474;51.460;7.150;2023-07-31T18:57:51;99345.00;;;16.40
80581;BMP180;1474;51.460;7.150;2023-07-31T19:00:17;99339.00;;;16.40
80581;BMP180;1474;51.460;7.150;2023-07-31T19:02:43;99330.00;;;16.40
80581;BMP180;1474;51.460;7.150;2023-07-31T19:05:09;99331.00;;;16.40
80581;BMP180;1474;51.460;7.150;2023-07-31T19:07:38;99327.00;;;16.50
80581;BMP180;1474;51.460;7.150;2023-07-31T19:10:05;99312.00;;;16.50
80581;BMP180;1474;51.460;7.150;2023-07-31T19:12:31;99316.00;;;16.50
80581;BMP180;1474;51.460;7.150;2023-07-31T19:14:57;99306.00;;;16.50
80581;BMP180;1474;51.460;7.150;2023-07-31T19:17:23;99300.00;;;16.50
80581;BMP180;1474;51.460;7.150;2023-07-31T19:19:49;99299.00;;;16.50
80581;BMP180;1474;51.460;7.150;2023-07-31T19:22:15;99290.00;;;16.50
80581;BMP180;1474;51.460;7.150;2023-07-31T19:24:41;99286.00;;;16.50
80581;BMP180;1474;51.460;7.150;2023-07-31T19:27:07;99285.00;;;16.40
80581;BMP180;1474;51.460;7.150;2023-07-31T19:29:35;99282.00;;;16.40
80581;BMP180;1474;51.460;7.150;2023-07-31T19:32:01;99269.00;;;16.40
80581;BMP180;1474;51.460;7.150;2023-07-31T19:34:27;99267.00;;;16.50
80581;BMP180;1474;51.460;7.150;2023-07-31T19:36:53;99241.00;;;16.40
80581;BMP180;1474;51.460;7.150;2023-07-31T19:39:19;99250.00;;;16.40
80581;BMP180;1474;51.460;7.150;2023-07-31T19:41:45;99251.00;;;16.40
80581;BMP180;1474;51.460;7.150;2023-07-31T19:44:11;99250.00;;;16.40
80581;BMP180;1474;51.460;7.150;2023-07-31T19:46:37;99264.00;;;16.50
80581;BMP180;1474;51.460;7.150;2023-07-31T19:49:03;99273.00;;;16.50
80581;BMP180;1474;51.460;7.150;2023-07-31T19:51:31;99270.00;;;16.50
80581;BMP180;1474;51.460;7.150;2023-07-31T19:53:57;99266.00;;;16.50
80581;BMP180;1474;51.460;7.150;2023-07-31T19:56:23;99268.00;;;16.50
80581;BMP180;1474;51.460;7.150;2023-07-31T19:58:49;99284.00;;;16.50
80581;BMP180;1474;51.460;7.150;2023-07-31T20:01:17;99265.00;;;16.50
80581;BMP180;1474;51.460;7.150;2023-07-31T20:03:48;99266.00;;;16.50
80581;BMP180;1474;51.460;7.150;2023-07-31T20:06:13;99264.00;;;16.50
80581;BMP180;1474;51.460;7.150;2023-07-31T20:08:42;99262.00;;;16.50
80581;BMP180;1474;51.460;7.150;2023-07-31T20:11:08;99263.00;;;16.50
80581;BMP180;1474;51.460;7.150;2023-07-31T20:13:34;99267.00;;;16.50
80581;BMP180;1474;51.460;7.150;2023-07-31T20:16:00;99258.00;;;16.60
80581;BMP180;1474;51.460;7.150;2023-07-31T20:18:30;99256.00;;;16.60
80581;BMP180;1474;51.460;7.150;2023-07-31T20:20:59;99257.00;;;16.60
80581;BMP180;1474;51.460;7.150;2023-07-31T20:23:25;99261.00;;;16.50
80581;BMP180;1474;51.460;7.150;2023-07-31T20:25:51;99256.00;;;16.60